createdAt,value
2023-01-19T00:00:15.450Z,96216.66
2023-01-19T00:03:38.319Z,96218.49
2023-01-19T00:06:41.205Z,96221.73
2023-01-19T00:09:44.512Z,96220.11
2023-01-19T00:12:47.355Z,96224.87
2023-01-19T00:15:50.306Z,96226.94
2023-01-19T00:18:53.649Z,96229.34
2023-01-19T00:21:56.643Z,96228.25
2023-01-19T00:24:59.651Z,96226.83
2023-01-19T00:28:02.546Z,96224.27
2023-01-19T00:31:05.699Z,96222.23
2023-01-19T00:34:08.911Z,96214.91
2023-01-19T00:37:12.214Z,96209.08
2023-01-19T00:40:15.156Z,96217.38
2023-01-19T00:43:18.048Z,96211.57
2023-01-19T00:46:20.905Z,96209.75
2023-01-19T00:49:23.748Z,96207.94
2023-01-19T00:52:26.654Z,96212.19
2023-01-19T00:55:31.621Z,96214.85
2023-01-19T00:58:34.576Z,96223.58
2023-01-19T01:01:45.906Z,96225.92
2023-01-19T01:04:54.829Z,96232.70
2023-01-19T01:07:57.734Z,96232.70
2023-01-19T01:11:00.972Z,96236.44
2023-01-19T01:14:03.838Z,96236.25
2023-01-19T01:17:11.371Z,96231.02
2023-01-19T01:20:19.215Z,96221.52
2023-01-19T01:23:23.136Z,96220.60
2023-01-19T01:26:27.791Z,96218.13
2023-01-19T01:29:30.751Z,96206.64
2023-01-19T01:32:33.901Z,96195.45
2023-01-19T01:35:37.171Z,96194.34
2023-01-19T01:38:41.455Z,96197.70
2023-01-19T01:41:44.707Z,96201.38
2023-01-19T01:44:51.494Z,96203.80
2023-01-19T01:47:57.619Z,96201.96
2023-01-19T01:51:24.285Z,96205.35
2023-01-19T01:54:32.107Z,96211.08
2023-01-19T01:57:39.475Z,96210.30
2023-01-19T02:01:01.580Z,96219.02
2023-01-19T02:04:04.749Z,96219.75
2023-01-19T02:07:26.419Z,96223.74
2023-01-19T02:10:48.130Z,96223.03
2023-01-19T02:13:51.346Z,96225.64
2023-01-19T02:16:54.432Z,96229.54
2023-01-19T02:19:58.225Z,96233.31
2023-01-19T02:23:05.884Z,96237.31
2023-01-19T02:26:11.571Z,96241.13
2023-01-19T02:29:26.143Z,96236.60
2023-01-19T02:32:29.489Z,96238.21
2023-01-19T02:35:33.023Z,96240.07
2023-01-19T02:38:38.628Z,96244.44
2023-01-19T02:41:49.141Z,96245.54
2023-01-19T02:44:54.748Z,96244.68
2023-01-19T02:47:57.648Z,96243.27
2023-01-19T02:51:04.696Z,96244.17
2023-01-19T02:54:23.206Z,96245.41
2023-01-19T02:57:32.137Z,96246.48
2023-01-19T03:00:52.553Z,96243.92
2023-01-19T03:04:10.165Z,96239.80
2023-01-19T03:07:38.482Z,96241.67
2023-01-19T03:11:10.238Z,96247.84
2023-01-19T03:14:18.741Z,96245.52
2023-01-19T03:17:22.741Z,96242.57
2023-01-19T03:20:28.997Z,96245.19
2023-01-19T03:23:34.809Z,96251.70
2023-01-19T03:26:44.273Z,96256.96
2023-01-19T03:29:53.354Z,96256.45
2023-01-19T03:33:04.994Z,96254.52
2023-01-19T03:36:24.372Z,96249.67
2023-01-19T03:39:28.512Z,96246.73
2023-01-19T03:42:32.044Z,96254.13
2023-01-19T03:45:38.830Z,96259.95
2023-01-19T03:48:42.229Z,96262.02
2023-01-19T03:51:45.820Z,96264.55
2023-01-19T03:54:49.349Z,96267.08
2023-01-19T03:57:52.241Z,96267.50
2023-01-19T04:00:55.161Z,96265.80
2023-01-19T04:03:58.002Z,96260.89
2023-01-19T04:07:01.459Z,96266.84
2023-01-19T04:10:04.810Z,96272.19
2023-01-19T04:13:07.663Z,96276.02
2023-01-19T04:16:12.018Z,96285.05
2023-01-19T04:19:15.109Z,96286.66
2023-01-19T04:22:17.950Z,96292.42
2023-01-19T04:25:21.688Z,96283.61
2023-01-19T04:28:25.032Z,96277.08
2023-01-19T04:31:28.046Z,96274.14
2023-01-19T04:34:30.952Z,96288.26
2023-01-19T04:37:33.775Z,96299.58
2023-01-19T04:40:36.695Z,96302.75
2023-01-19T04:43:39.657Z,96308.56
2023-01-19T04:46:42.653Z,96310.92
2023-01-19T04:49:46.019Z,96314.52
2023-01-19T04:52:49.234Z,96310.80
2023-01-19T04:55:55.553Z,96312.83
2023-01-19T04:58:58.451Z,96313.42
2023-01-19T05:02:01.384Z,96323.83
2023-01-19T05:05:04.948Z,96327.13
2023-01-19T05:08:07.809Z,96329.16
2023-01-19T05:11:10.784Z,96321.25
2023-01-19T05:14:13.617Z,96319.99
2023-01-19T05:17:16.595Z,96316.46
2023-01-19T05:20:19.534Z,96306.39
2023-01-19T05:23:22.487Z,96293.98
2023-01-19T05:26:25.445Z,96285.38
2023-01-19T05:29:28.299Z,96286.05
2023-01-19T05:32:31.477Z,96287.75
2023-01-19T05:35:36.452Z,96291.83
2023-01-19T05:38:39.480Z,96294.90
2023-01-19T05:41:42.301Z,96301.41
2023-01-19T05:44:45.151Z,96302.89
2023-01-19T05:47:48.184Z,96298.56
2023-01-19T05:50:51.619Z,96299.02
2023-01-19T05:53:55.258Z,96293.41
2023-01-19T05:56:58.337Z,96287.84
2023-01-19T06:00:01.183Z,96295.91
2023-01-19T06:03:05.013Z,96299.67
2023-01-19T06:06:08.314Z,96298.36
2023-01-19T06:09:11.464Z,96303.08
2023-01-19T06:12:14.405Z,96313.81
2023-01-19T06:15:17.469Z,96322.56
2023-01-19T06:18:20.400Z,96321.13
2023-01-19T06:21:23.260Z,96320.79
2023-01-19T06:24:26.581Z,96327.67
2023-01-19T06:27:29.584Z,96332.27
2023-01-19T06:30:32.508Z,96337.15
2023-01-19T06:33:35.442Z,96348.84
2023-01-19T06:36:38.924Z,96363.25
2023-01-19T06:39:42.392Z,96369.98
2023-01-19T06:42:45.238Z,96381.66
2023-01-19T06:45:48.349Z,96385.40
2023-01-19T06:48:51.329Z,96392.92
2023-01-19T06:51:54.187Z,96391.41
2023-01-19T06:54:57.064Z,96393.84
2023-01-19T06:58:00.052Z,96403.60
2023-01-19T07:01:06.790Z,96411.49
2023-01-19T07:04:14.144Z,96419.21
2023-01-19T07:07:17.219Z,96420.73
2023-01-19T07:10:20.143Z,96418.27
2023-01-19T07:13:23.030Z,96429.19
2023-01-19T07:16:26.194Z,96430.22
2023-01-19T07:19:29.055Z,96429.20
2023-01-19T07:22:31.866Z,96430.39
2023-01-19T07:25:34.906Z,96438.70
2023-01-19T07:28:37.957Z,96435.29
2023-01-19T07:31:40.987Z,96432.58
2023-01-19T07:34:43.949Z,96427.23
2023-01-19T07:37:47.116Z,96438.16
2023-01-19T07:40:50.104Z,96443.41
2023-01-19T07:43:53.323Z,96458.88
2023-01-19T07:46:56.575Z,96454.46
2023-01-19T07:49:59.540Z,96452.07
2023-01-19T07:53:07.280Z,96460.89
2023-01-19T07:56:10.764Z,96467.87
2023-01-19T07:59:13.821Z,96463.67
2023-01-19T08:02:17.439Z,96467.19
2023-01-19T08:05:21.212Z,96483.45
2023-01-19T08:08:24.111Z,96479.64
2023-01-19T08:11:27.040Z,96477.55
2023-01-19T08:14:30.040Z,96485.14
2023-01-19T08:17:32.886Z,96471.93
2023-01-19T08:20:36.611Z,96468.42
2023-01-19T08:23:39.650Z,96479.05
2023-01-19T08:26:42.573Z,96473.63
2023-01-19T08:29:45.753Z,96458.20
2023-01-19T08:32:48.739Z,96461.15
2023-01-19T08:35:53.921Z,96462.62
2023-01-19T08:38:57.085Z,96458.73
2023-01-19T08:42:00.970Z,96465.87
2023-01-19T08:45:04.184Z,96471.06
2023-01-19T08:48:07.092Z,96488.80
2023-01-19T08:51:10.195Z,96500.48
2023-01-19T08:54:14.206Z,96490.26
2023-01-19T08:57:17.152Z,96492.73
2023-01-19T09:00:21.386Z,96495.76
2023-01-19T09:03:24.438Z,96507.67
2023-01-19T09:06:28.518Z,96517.06
2023-01-19T09:09:31.490Z,96513.14
2023-01-19T09:12:34.462Z,96508.46
2023-01-19T09:15:38.869Z,96509.09
2023-01-19T09:18:42.299Z,96501.34
2023-01-19T09:21:45.324Z,96496.23
2023-01-19T09:24:48.328Z,96503.70
2023-01-19T09:27:51.523Z,96515.23
2023-01-19T09:30:54.769Z,96520.33
2023-01-19T09:33:57.757Z,96515.17
2023-01-19T09:37:00.693Z,96502.90
2023-01-19T09:40:05.637Z,96495.65
2023-01-19T09:43:39.115Z,96489.12
2023-01-19T09:46:42.382Z,96488.58
2023-01-19T09:49:51.303Z,96489.08
2023-01-19T09:53:01.632Z,96494.80
2023-01-19T09:56:05.116Z,96499.74
2023-01-19T09:59:32.120Z,96505.05
2023-01-19T10:02:44.914Z,96505.20
2023-01-19T10:05:55.248Z,96507.99
2023-01-19T10:09:10.797Z,96495.13
2023-01-19T10:12:39.992Z,96495.14
2023-01-19T10:15:47.918Z,96491.80
2023-01-19T10:18:57.567Z,96486.82
2023-01-19T10:22:23.070Z,96485.02
2023-01-19T10:25:27.169Z,96482.77
2023-01-19T10:28:30.320Z,96473.29
2023-01-19T10:31:36.101Z,96465.91
2023-01-19T10:34:39.645Z,96466.40
2023-01-19T10:37:44.990Z,96467.26
2023-01-19T10:41:19.672Z,96466.55
2023-01-19T10:44:29.321Z,96469.17
2023-01-19T10:47:36.849Z,96471.20
2023-01-19T10:50:40.036Z,96467.45
2023-01-19T10:53:52.896Z,96470.33
2023-01-19T10:56:59.625Z,96466.92
2023-01-19T11:00:03.849Z,96463.98
2023-01-19T11:03:30.627Z,96463.55
2023-01-19T11:10:15.408Z,96466.77
2023-01-19T11:13:18.447Z,96469.52
2023-01-19T11:16:29.254Z,96467.70
2023-01-19T11:19:33.902Z,96472.34
2023-01-19T11:22:36.914Z,96469.96
2023-01-19T11:25:40.085Z,96459.83
2023-01-19T11:28:48.219Z,96456.94
2023-01-19T11:31:52.287Z,96456.86
2023-01-19T11:34:55.344Z,96455.71
2023-01-19T11:38:19.737Z,96460.27
2023-01-19T11:41:30.219Z,96459.89
2023-01-19T11:44:39.262Z,96465.44
2023-01-19T11:47:45.462Z,96462.06
2023-01-19T11:50:50.081Z,96460.27
2023-01-19T11:53:53.846Z,96462.29
2023-01-19T11:57:00.216Z,96463.56
2023-01-19T12:00:17.714Z,96459.48
2023-01-19T12:03:44.442Z,96462.02
2023-01-19T12:06:51.937Z,96461.13
2023-01-19T12:10:02.556Z,96460.68
2023-01-19T12:13:05.485Z,96464.41
2023-01-19T12:16:20.093Z,96466.70
2023-01-19T12:19:34.180Z,96470.88
2023-01-19T12:22:49.595Z,96469.27
2023-01-19T12:26:14.721Z,96465.38
2023-01-19T12:29:20.112Z,96464.96
2023-01-19T12:32:33.780Z,96463.48
2023-01-19T12:35:57.343Z,96463.39
2023-01-19T12:39:11.409Z,96467.44
2023-01-19T12:42:17.219Z,96473.85
2023-01-19T12:45:26.010Z,96483.53
2023-01-19T12:48:32.639Z,96485.47
2023-01-19T12:51:35.601Z,96485.16
2023-01-19T12:54:43.753Z,96487.23
2023-01-19T12:57:53.980Z,96484.54
2023-01-19T13:01:19.230Z,96488.18
2023-01-19T13:04:40.529Z,96498.35
2023-01-19T13:08:07.098Z,96502.27
2023-01-19T13:11:16.264Z,96497.61
2023-01-19T13:14:37.712Z,96497.58
2023-01-19T13:17:54.916Z,96496.09
2023-01-19T13:21:09.156Z,96505.59
2023-01-19T13:24:23.133Z,96508.65
2023-01-19T13:27:46.379Z,96518.12
2023-01-19T13:31:00.747Z,96525.95
2023-01-19T13:34:05.459Z,96526.27
2023-01-19T13:37:17.326Z,96528.48
2023-01-19T13:40:30.607Z,96539.30
2023-01-19T13:43:37.736Z,96545.49
2023-01-19T13:46:41.542Z,96548.89
2023-01-19T13:49:46.773Z,96553.98
2023-01-19T13:52:51.559Z,96554.71
2023-01-19T13:56:23.380Z,96553.77
2023-01-19T13:59:26.561Z,96548.80
2023-01-19T14:02:30.086Z,96548.27
2023-01-19T14:05:43.358Z,96548.02
2023-01-19T14:08:46.422Z,96557.23
2023-01-19T14:12:16.293Z,96562.58
2023-01-19T14:15:19.243Z,96560.66
2023-01-19T14:18:22.181Z,96563.73
2023-01-19T14:21:25.311Z,96565.13
2023-01-19T14:24:30.047Z,96560.33
2023-01-19T14:27:33.017Z,96555.59
2023-01-19T14:30:36.841Z,96556.41
2023-01-19T14:33:46.191Z,96557.65
2023-01-19T14:36:51.890Z,96569.27
2023-01-19T14:40:08.303Z,96567.90
2023-01-19T14:43:13.400Z,96567.64
2023-01-19T14:46:20.801Z,96569.31
2023-01-19T14:49:40.340Z,96569.70
2023-01-19T14:52:57.108Z,96571.96
2023-01-19T14:56:04.722Z,96571.64
2023-01-19T14:59:11.258Z,96578.52
2023-01-19T15:02:15.079Z,96580.70
2023-01-19T15:05:18.153Z,96583.35
2023-01-19T15:08:30.387Z,96585.05
2023-01-19T15:11:35.106Z,96585.99
2023-01-19T15:14:38.062Z,96593.23
2023-01-19T15:17:41.018Z,96592.84
2023-01-19T15:20:43.936Z,96588.33
2023-01-19T15:23:47.789Z,96587.82
2023-01-19T15:26:50.922Z,96581.07
2023-01-19T15:29:54.808Z,96587.65
2023-01-19T15:32:59.150Z,96591.14
2023-01-19T15:36:02.338Z,96595.97
2023-01-19T15:39:05.482Z,96597.23
2023-01-19T15:42:15.697Z,96605.63
2023-01-19T15:45:33.485Z,96608.02
2023-01-19T15:48:37.109Z,96608.16
2023-01-19T15:51:40.063Z,96611.23
2023-01-19T15:54:43.092Z,96615.98
2023-01-19T15:57:47.936Z,96612.14
2023-01-19T16:00:56.138Z,96619.40
2023-01-19T16:04:01.567Z,96622.05
2023-01-19T16:07:05.929Z,96624.82
2023-01-19T16:10:18.696Z,96623.39
2023-01-19T16:13:21.939Z,96625.27
2023-01-19T16:16:28.110Z,96626.21
2023-01-19T16:19:31.924Z,96627.54
2023-01-19T16:22:35.579Z,96632.23
2023-01-19T16:25:38.602Z,96637.02
2023-01-19T16:28:41.760Z,96639.04
2023-01-19T16:31:46.151Z,96640.08
2023-01-19T16:34:49.255Z,96641.45
2023-01-19T16:37:52.374Z,96639.46
2023-01-19T16:40:55.527Z,96641.54
2023-01-19T16:43:59.181Z,96645.16
2023-01-19T16:47:02.236Z,96644.52
2023-01-19T16:50:06.536Z,96648.42
2023-01-19T16:53:09.630Z,96649.95
2023-01-19T16:56:14.711Z,96647.23
2023-01-19T16:59:18.364Z,96653.35
2023-01-19T17:02:21.480Z,96656.20
2023-01-19T17:05:24.413Z,96669.77
2023-01-19T17:08:49.312Z,96667.30
2023-01-19T17:11:57.320Z,96666.27
2023-01-19T17:15:01.774Z,96665.09
2023-01-19T17:18:05.177Z,96663.55
2023-01-19T17:21:10.376Z,96661.17
2023-01-19T17:24:13.475Z,96662.05
2023-01-19T17:27:17.308Z,96660.69
2023-01-19T17:30:20.755Z,96658.23
2023-01-19T17:33:25.155Z,96664.54
2023-01-19T17:36:31.030Z,96667.66
2023-01-19T17:39:34.328Z,96675.64
2023-01-19T17:42:42.505Z,96677.08
2023-01-19T17:45:45.616Z,96681.23
2023-01-19T17:48:53.612Z,96687.08
2023-01-19T17:51:56.987Z,96687.39
2023-01-19T17:55:00.931Z,96690.25
2023-01-19T17:58:04.057Z,96689.25
2023-01-19T18:01:13.184Z,96691.82
2023-01-19T18:04:16.638Z,96686.23
2023-01-19T18:07:20.120Z,96685.23
2023-01-19T18:10:23.309Z,96686.52
2023-01-19T18:13:27.145Z,96685.95
2023-01-19T18:16:31.210Z,96693.72
2023-01-19T18:19:34.508Z,96700.17
2023-01-19T18:22:37.814Z,96706.62
2023-01-19T18:25:41.074Z,96709.37
2023-01-19T18:28:44.162Z,96713.50
2023-01-19T18:31:48.189Z,96714.29
2023-01-19T18:34:54.263Z,96719.67
2023-01-19T18:37:58.925Z,96730.00
2023-01-19T18:41:06.339Z,96733.84
2023-01-19T18:44:10.541Z,96733.16
2023-01-19T18:47:13.655Z,96733.14
2023-01-19T18:50:18.400Z,96734.05
2023-01-19T18:53:21.658Z,96732.49
2023-01-19T18:56:25.729Z,96741.81
2023-01-19T18:59:28.665Z,96749.73
2023-01-19T19:02:33.354Z,96750.85
2023-01-19T19:05:37.728Z,96753.05
2023-01-19T19:08:40.983Z,96757.30
2023-01-19T19:11:44.086Z,96757.96
2023-01-19T19:14:47.819Z,96751.56
2023-01-19T19:17:50.957Z,96754.77
2023-01-19T19:20:54.104Z,96762.52
2023-01-19T19:23:58.580Z,96762.79
2023-01-19T19:27:01.951Z,96768.41
2023-01-19T19:30:06.019Z,96775.19
2023-01-19T19:33:09.371Z,96778.84
2023-01-19T19:36:12.737Z,96786.81
2023-01-19T19:39:15.770Z,96792.63
2023-01-19T19:42:18.849Z,96795.97
2023-01-19T19:45:21.921Z,96800.75
2023-01-19T19:48:26.250Z,96810.52
2023-01-19T19:51:29.463Z,96815.16
2023-01-19T19:54:33.070Z,96819.54
2023-01-19T19:57:36.642Z,96824.64
2023-01-19T20:00:39.583Z,96827.08
2023-01-19T20:03:43.377Z,96830.41
2023-01-19T20:06:48.343Z,96833.45
2023-01-19T20:09:53.774Z,96837.09
2023-01-19T20:12:56.844Z,96838.35
2023-01-19T20:16:10.414Z,96842.33
2023-01-19T20:19:13.737Z,96848.10
2023-01-19T20:22:17.138Z,96848.63
2023-01-19T20:25:20.778Z,96848.17
2023-01-19T20:28:23.847Z,96847.80
2023-01-19T20:31:32.902Z,96849.11
2023-01-19T20:34:36.979Z,96846.04
2023-01-19T20:37:41.416Z,96848.30
2023-01-19T20:40:44.303Z,96847.42
2023-01-19T20:43:47.507Z,96849.77
2023-01-19T20:46:50.767Z,96850.41
2023-01-19T20:49:53.805Z,96853.64
2023-01-19T20:52:56.883Z,96859.90
2023-01-19T20:56:07.523Z,96855.77
2023-01-19T20:59:11.958Z,96854.75
2023-01-19T21:02:16.162Z,96853.42
2023-01-19T21:05:19.503Z,96856.17
2023-01-19T21:08:23.041Z,96861.59
2023-01-19T21:11:26.639Z,96871.08
2023-01-19T21:14:30.041Z,96875.57
2023-01-19T21:17:33.216Z,96882.27
2023-01-19T21:20:36.156Z,96889.25
2023-01-19T21:23:39.207Z,96894.45
2023-01-19T21:26:42.715Z,96896.23
2023-01-19T21:29:48.266Z,96902.41
2023-01-19T21:32:51.388Z,96909.70
2023-01-19T21:35:57.366Z,96915.88
2023-01-19T21:39:01.019Z,96911.59
2023-01-19T21:42:04.311Z,96910.05
2023-01-19T21:45:08.653Z,96915.59
2023-01-19T21:48:12.688Z,96916.13
2023-01-19T21:51:16.656Z,96914.60
2023-01-19T21:54:19.873Z,96916.14
2023-01-19T21:57:24.767Z,96920.92
2023-01-19T22:00:31.962Z,96921.52
2023-01-19T22:03:35.698Z,96918.38
2023-01-19T22:06:39.419Z,96914.98
2023-01-19T22:09:43.599Z,96917.23
2023-01-19T22:12:46.648Z,96921.67
2023-01-19T22:15:51.435Z,96925.81
2023-01-19T22:19:00.573Z,96925.04
2023-01-19T22:22:03.664Z,96927.32
2023-01-19T22:25:07.106Z,96928.86
2023-01-19T22:28:10.458Z,96930.60
2023-01-19T22:31:17.179Z,96926.48
2023-01-19T22:34:20.364Z,96925.27
2023-01-19T22:37:23.580Z,96924.31
2023-01-19T22:40:27.062Z,96929.77
2023-01-19T22:43:30.499Z,96930.69
2023-01-19T22:46:35.717Z,96928.94
2023-01-19T22:49:38.994Z,96927.48
2023-01-19T22:52:42.626Z,96932.11
2023-01-19T22:55:45.979Z,96937.45
2023-01-19T22:58:49.823Z,96945.88
2023-01-19T23:01:53.703Z,96947.23
2023-01-19T23:04:57.537Z,96951.54
2023-01-19T23:08:00.814Z,96958.42
2023-01-19T23:11:06.975Z,96966.30
2023-01-19T23:14:15.409Z,96975.95
2023-01-19T23:17:19.313Z,96976.86
2023-01-19T23:20:22.657Z,96972.34
2023-01-19T23:23:25.897Z,96972.61
2023-01-19T23:26:31.226Z,96973.23
2023-01-19T23:29:35.005Z,96965.25
2023-01-19T23:32:38.288Z,96963.20
2023-01-19T23:35:41.849Z,96966.42
2023-01-19T23:38:51.120Z,96971.41
2023-01-19T23:41:54.262Z,96969.92
2023-01-19T23:44:57.358Z,96965.89
2023-01-19T23:48:00.815Z,96964.08
2023-01-19T23:51:11.440Z,96967.10
2023-01-19T23:54:14.507Z,96969.55
2023-01-19T23:57:38.051Z,96973.53
